Time;durP1;ratioP1;P1;durP2;ratioP2;P2;SDS_P1;SDS_P2;PMS_P1;PMS_P2;Temp;Humidity;BMP_temperature;BMP_pressure;BME280_temperature;BME280_humidity;BME280_pressure;Samples;Min_cycle;Max_cycle;Signal;HPM_P1;HPM_P2
2022/05/09 00:02:05;;;;;;;7.27;3.00;;;11.70;99.90;;;;;;5071397;28;20992;-52
2022/05/09 00:04:35;;;;;;;10.00;2.80;;;11.60;99.90;;;;;;5071889;28;20201;-53
2022/05/09 00:07:03;;;;;;;5.63;2.43;;;11.60;99.90;;;;;;5071781;28;20228;-53
2022/05/09 00:09:31;;;;;;;5.93;2.40;;;11.60;99.90;;;;;;5062073;28;20233;-53
2022/05/09 00:12:00;;;;;;;5.27;2.33;;;11.60;99.90;;;;;;5052058;28;20576;-53
2022/05/09 00:14:28;;;;;;;6.50;2.83;;;11.50;99.90;;;;;;5070055;28;20205;-53
2022/05/09 00:16:56;;;;;;;5.93;2.50;;;11.50;99.90;;;;;;5072105;28;20253;-53
2022/05/09 00:19:24;;;;;;;6.63;2.50;;;11.50;99.90;;;;;;5072129;28;20678;-53
2022/05/09 00:21:54;;;;;;;6.73;2.80;;;11.50;99.90;;;;;;5071943;28;20258;-53
2022/05/09 00:24:23;;;;;;;5.30;2.30;;;11.40;99.90;;;;;;5072505;28;20205;-53
2022/05/09 00:26:53;;;;;;;6.20;2.30;;;11.40;99.90;;;;;;5072557;28;20201;-53
2022/05/09 00:29:21;;;;;;;4.97;2.30;;;11.40;99.90;;;;;;5070871;28;20205;-52
2022/05/09 00:31:51;;;;;;;6.83;3.10;;;11.30;99.90;;;;;;5071683;28;20255;-52
2022/05/09 00:34:21;;;;;;;4.40;2.73;;;11.20;99.90;;;;;;5072008;28;20213;-52
2022/05/09 00:36:52;;;;;;;7.07;2.80;;;11.10;99.90;;;;;;5071255;28;20252;-53
2022/05/09 00:39:21;;;;;;;6.67;2.80;;;11.10;99.90;;;;;;5072257;28;20230;-52
2022/05/09 00:41:50;;;;;;;7.50;2.73;;;11.00;99.90;;;;;;5071783;28;20240;-53
2022/05/09 00:44:20;;;;;;;8.00;3.07;;;11.00;99.90;;;;;;5071681;28;20946;-52
2022/05/09 00:46:51;;;;;;;5.73;2.57;;;11.00;99.90;;;;;;5054038;28;20201;-53
2022/05/09 00:49:25;;;;;;;4.67;2.47;;;11.00;99.90;;;;;;5051397;28;20205;-53
2022/05/09 00:51:57;;;;;;;5.83;2.90;;;10.90;99.90;;;;;;5061653;28;20669;-53
2022/05/09 00:54:30;;;;;;;6.27;2.77;;;10.90;99.90;;;;;;5071679;28;20267;-52
2022/05/09 00:57:04;;;;;;;2.90;2.30;;;11.00;99.90;;;;;;5071527;28;20260;-52
2022/05/09 00:59:36;;;;;;;5.93;2.60;;;11.00;99.90;;;;;;5071375;28;20248;-52
2022/05/09 01:02:05;;;;;;;5.87;2.70;;;10.90;99.90;;;;;;5071131;28;20265;-52
2022/05/09 01:04:43;;;;;;;3.97;2.57;;;10.90;99.90;;;;;;5071562;28;20254;-52
2022/05/09 01:07:11;;;;;;;5.73;2.63;;;11.00;99.90;;;;;;5071248;28;20232;-53
2022/05/09 01:09:41;;;;;;;7.47;2.63;;;10.90;99.90;;;;;;5071405;28;20205;-53
2022/05/09 01:12:11;;;;;;;6.10;2.40;;;10.90;99.90;;;;;;5070792;28;20209;-53
2022/05/09 01:14:40;;;;;;;7.70;3.00;;;10.90;99.90;;;;;;5071553;28;20259;-53
2022/05/09 01:17:11;;;;;;;8.90;3.00;;;10.90;99.90;;;;;;5071304;28;20255;-53
2022/05/09 01:19:41;;;;;;;7.23;2.93;;;11.00;99.90;;;;;;5071871;28;20695;-53
2022/05/09 01:22:24;;;;;;;6.03;2.67;;;11.00;99.90;;;;;;5070896;28;20197;-53
2022/05/09 01:24:54;;;;;;;5.53;3.07;;;11.00;99.90;;;;;;5070781;28;20259;-53
2022/05/09 01:27:23;;;;;;;6.47;3.10;;;10.90;99.90;;;;;;5071272;28;20733;-53
2022/05/09 01:29:56;;;;;;;4.50;2.83;;;10.70;99.90;;;;;;5069457;28;20643;-53
2022/05/09 01:32:28;;;;;;;7.87;3.20;;;10.50;99.90;;;;;;5071106;28;20268;-53
2022/05/09 01:35:02;;;;;;;7.33;3.20;;;10.50;99.90;;;;;;5070892;28;20216;-53
2022/05/09 01:37:33;;;;;;;8.73;3.60;;;10.40;99.90;;;;;;5070557;28;20240;-53
2022/05/09 01:40:01;;;;;;;8.13;3.40;;;10.30;99.90;;;;;;5071149;28;20204;-53
2022/05/09 01:42:30;;;;;;;6.40;3.33;;;10.30;99.90;;;;;;5070092;28;20776;-53
2022/05/09 01:44:58;;;;;;;7.77;3.30;;;10.20;99.90;;;;;;5067904;28;20205;-53
2022/05/09 01:50:12;;;;;;;5.03;2.87;;;10.20;99.90;;;;;;5065695;28;20240;-53
2022/05/09 01:52:41;;;;;;;7.50;3.30;;;10.10;99.90;;;;;;5069888;28;20232;-53
2022/05/09 01:55:09;;;;;;;5.53;2.97;;;10.10;99.90;;;;;;5070739;28;20233;-53
2022/05/09 01:57:37;;;;;;;7.50;3.30;;;10.10;99.90;;;;;;5070427;28;20316;-53
2022/05/09 02:00:07;;;;;;;5.00;3.20;;;10.00;99.90;;;;;;5070393;28;20238;-53
2022/05/09 02:02:36;;;;;;;6.60;3.37;;;10.00;99.90;;;;;;5070814;28;20216;-52
2022/05/09 02:05:04;;;;;;;6.27;3.00;;;10.00;99.90;;;;;;5070840;28;20213;-53
2022/05/09 02:07:45;;;;;;;4.97;2.87;;;9.90;99.90;;;;;;5070245;28;20256;-53
2022/05/09 02:10:45;;;;;;;7.40;3.40;;;10.00;99.90;;;;;;5070610;28;20208;-52
2022/05/09 02:13:15;;;;;;;6.70;2.90;;;10.00;99.90;;;;;;5070517;28;20193;-53
2022/05/09 02:15:43;;;;;;;6.37;2.97;;;10.00;99.90;;;;;;5070824;28;20240;-53
2022/05/09 02:18:11;;;;;;;6.97;2.80;;;10.00;99.90;;;;;;5070140;28;20270;-53
2022/05/09 02:20:41;;;;;;;4.77;2.90;;;10.10;99.90;;;;;;5070286;28;20741;-52
2022/05/09 02:23:14;;;;;;;7.00;3.33;;;10.00;99.90;;;;;;5070057;28;20223;-53
2022/05/09 02:25:43;;;;;;;7.83;3.50;;;10.00;99.90;;;;;;5070653;28;20262;-53
2022/05/09 02:28:12;;;;;;;5.43;2.87;;;9.90;99.90;;;;;;5070361;28;20349;-53
2022/05/09 02:30:41;;;;;;;6.63;3.33;;;9.90;99.90;;;;;;5070511;28;20237;-53
2022/05/09 02:33:11;;;;;;;6.30;3.20;;;9.90;99.90;;;;;;5073994;28;20205;-53
2022/05/09 02:35:41;;;;;;;7.70;3.57;;;9.90;99.90;;;;;;5073310;28;20220;-53
2022/05/09 02:38:09;;;;;;;6.70;3.27;;;9.90;99.90;;;;;;5074057;28;20282;-53
2022/05/09 02:40:40;;;;;;;6.87;3.30;;;9.80;99.90;;;;;;5074633;28;20233;-53
2022/05/09 02:43:08;;;;;;;11.10;3.10;;;9.90;99.90;;;;;;5073653;28;20670;-53
2022/05/09 02:45:36;;;;;;;8.77;3.27;;;9.80;99.90;;;;;;5074198;28;20251;-53
2022/05/09 02:48:05;;;;;;;4.90;3.40;;;9.90;99.90;;;;;;5073965;28;20709;-52
2022/05/09 02:50:33;;;;;;;6.53;2.90;;;9.90;99.90;;;;;;5074462;28;20201;-52
2022/05/09 02:53:01;;;;;;;5.47;3.00;;;9.90;99.90;;;;;;5073246;28;20208;-52
2022/05/09 02:55:31;;;;;;;7.53;3.63;;;9.90;99.90;;;;;;5073952;28;20249;-52
2022/05/09 02:58:01;;;;;;;7.20;3.53;;;9.70;99.90;;;;;;5073750;28;20227;-53
2022/05/09 03:00:30;;;;;;;6.87;3.20;;;9.70;99.90;;;;;;5073520;28;20655;-53
2022/05/09 03:05:46;;;;;;;4.67;2.90;;;9.70;99.90;;;;;;5073341;28;20209;-52
2022/05/09 03:08:17;;;;;;;6.13;2.80;;;9.60;99.90;;;;;;5073637;28;20225;-52
2022/05/09 03:10:46;;;;;;;5.90;3.13;;;9.50;99.90;;;;;;5073792;28;20258;-53
2022/05/09 03:13:16;;;;;;;7.17;3.50;;;9.50;99.90;;;;;;5072875;28;20258;-53
2022/05/09 03:15:45;;;;;;;5.70;3.23;;;9.40;99.90;;;;;;5073977;28;20693;-52
2022/05/09 03:18:14;;;;;;;5.27;3.30;;;9.50;99.90;;;;;;5073627;28;20231;-52
2022/05/09 03:20:43;;;;;;;8.00;3.53;;;9.40;99.90;;;;;;5073520;28;20208;-52
2022/05/09 03:23:11;;;;;;;7.20;3.50;;;9.40;99.90;;;;;;5072873;28;20213;-53
2022/05/09 03:25:41;;;;;;;8.60;3.37;;;9.40;99.90;;;;;;5073907;28;20205;-53
2022/05/09 03:28:12;;;;;;;5.43;3.23;;;9.40;99.90;;;;;;5073605;28;20221;-52
2022/05/09 03:30:41;;;;;;;4.37;3.03;;;9.30;99.90;;;;;;5071003;28;20226;-52
2022/05/09 03:33:22;;;;;;;7.07;3.10;;;9.30;99.90;;;;;;5073161;28;20236;-52
2022/05/09 03:35:50;;;;;;;6.67;3.87;;;9.20;99.90;;;;;;5072819;28;20242;-52
2022/05/09 03:38:18;;;;;;;7.63;3.50;;;9.20;99.90;;;;;;5073121;28;20229;-52
2022/05/09 03:40:46;;;;;;;5.27;3.37;;;9.20;99.90;;;;;;5073375;28;20201;-51
2022/05/09 03:43:14;;;;;;;7.53;3.50;;;9.20;99.90;;;;;;5071659;28;20247;-52
2022/05/09 03:45:48;;;;;;;6.17;3.03;;;9.20;99.90;;;;;;5073123;28;20255;-53
2022/05/09 03:48:16;;;;;;;6.63;3.47;;;9.20;99.90;;;;;;5073160;28;20231;-52
2022/05/09 03:50:44;;;;;;;6.37;3.07;;;9.20;99.90;;;;;;5072189;28;20287;-52
2022/05/09 03:53:12;;;;;;;6.40;3.40;;;9.20;99.90;;;;;;5069100;28;20573;-53
2022/05/09 03:55:40;;;;;;;5.10;3.30;;;9.20;99.90;;;;;;5072664;28;20209;-52
2022/05/09 03:58:09;;;;;;;5.67;3.13;;;9.20;99.90;;;;;;5072350;28;20689;-52
2022/05/09 04:00:37;;;;;;;5.73;3.00;;;9.20;99.90;;;;;;5072327;28;20231;-53
2022/05/09 04:03:06;;;;;;;5.53;3.00;;;9.10;99.90;;;;;;5072006;28;20256;-52
2022/05/09 04:05:35;;;;;;;5.97;3.50;;;9.20;99.90;;;;;;5071042;28;20752;-52
2022/05/09 04:08:06;;;;;;;7.10;3.47;;;9.20;99.90;;;;;;5070181;28;20224;-51
2022/05/09 04:10:37;;;;;;;7.17;3.73;;;9.20;99.90;;;;;;5070125;28;20338;-52
2022/05/09 04:13:05;;;;;;;5.43;3.47;;;9.30;99.90;;;;;;5067168;28;20201;-52
2022/05/09 04:18:21;;;;;;;5.60;3.30;;;9.30;99.90;;;;;;5070276;28;20233;-52
2022/05/09 04:20:51;;;;;;;6.10;3.30;;;9.30;99.90;;;;;;5070527;28;20266;-52
2022/05/09 04:23:20;;;;;;;9.17;3.57;;;9.30;99.90;;;;;;5067778;28;20269;-51
2022/05/09 04:25:49;;;;;;;6.23;3.50;;;9.60;99.90;;;;;;5072007;28;20278;-52
2022/05/09 04:28:22;;;;;;;6.40;3.30;;;10.00;99.90;;;;;;5072073;28;20760;-52
2022/05/09 04:30:51;;;;;;;6.70;3.00;;;10.60;99.90;;;;;;5071920;28;20239;-52
2022/05/09 04:33:21;;;;;;;5.20;3.40;;;11.00;99.90;;;;;;5072169;28;20219;-52
2022/05/09 04:35:49;;;;;;;8.00;3.20;;;11.40;99.90;;;;;;5071982;28;20290;-52
2022/05/09 04:38:22;;;;;;;7.53;2.90;;;11.70;99.90;;;;;;5069106;28;20692;-52
2022/05/09 04:40:56;;;;;;;5.97;2.93;;;11.90;99.90;;;;;;5065072;28;20280;-53
2022/05/09 04:43:28;;;;;;;10.20;3.60;;;12.10;99.90;;;;;;5069656;28;20193;-52
2022/05/09 04:45:59;;;;;;;5.77;3.03;;;12.20;99.90;;;;;;5071357;28;20258;-52
2022/05/09 04:48:29;;;;;;;7.63;3.13;;;12.50;99.90;;;;;;5071336;28;20270;-53
2022/05/09 04:50:58;;;;;;;7.00;3.03;;;12.80;99.90;;;;;;5070804;28;20816;-52
2022/05/09 04:53:27;;;;;;;6.37;2.70;;;13.10;99.90;;;;;;5069227;28;20197;-52
2022/05/09 04:55:57;;;;;;;7.07;3.07;;;13.30;99.90;;;;;;5070926;28;20634;-52
2022/05/09 04:58:25;;;;;;;4.43;3.03;;;13.50;99.90;;;;;;5070136;28;20225;-52
2022/05/09 05:00:54;;;;;;;5.60;2.80;;;13.70;99.90;;;;;;5070391;28;20208;-52
2022/05/09 05:03:23;;;;;;;4.77;2.60;;;13.90;99.90;;;;;;5070869;28;20259;-53
2022/05/09 05:05:53;;;;;;;6.13;2.83;;;14.30;99.90;;;;;;5070998;28;20223;-53
2022/05/09 05:08:22;;;;;;;4.40;2.80;;;14.50;99.90;;;;;;5070232;28;20972;-53
2022/05/09 05:10:53;;;;;;;3.92;2.83;;;14.80;99.90;;;;;;5057384;28;20204;-53
2022/05/09 05:13:22;;;;;;;5.38;3.03;;;15.10;99.90;;;;;;5065242;28;20204;-53
2022/05/09 05:15:50;;;;;;;6.10;3.00;;;15.20;99.90;;;;;;5070786;28;20236;-53
2022/05/09 05:18:20;;;;;;;4.47;2.90;;;15.40;99.90;;;;;;5070904;28;20229;-53
2022/05/09 05:20:48;;;;;;;5.32;2.90;;;15.60;99.90;;;;;;5069641;28;20205;-52
2022/05/09 05:23:18;;;;;;;6.90;2.90;;;15.80;99.90;;;;;;5068686;28;20200;-53
2022/05/09 05:25:47;;;;;;;6.32;3.00;;;16.00;99.90;;;;;;5070689;28;20284;-53
2022/05/09 05:28:16;;;;;;;5.25;3.10;;;16.20;99.90;;;;;;5070569;28;20248;-53
2022/05/09 05:30:44;;;;;;;4.32;2.72;;;16.40;99.90;;;;;;5069406;28;20209;-53
2022/05/09 05:33:13;;;;;;;6.28;2.72;;;16.60;99.90;;;;;;5070200;28;20228;-53
2022/05/09 05:35:41;;;;;;;5.97;2.72;;;16.70;99.90;;;;;;5061767;28;20213;-51
2022/05/09 05:38:09;;;;;;;4.72;2.78;;;17.10;99.90;;;;;;5048212;28;20506;-53
2022/05/09 05:40:38;;;;;;;5.90;2.80;;;17.50;99.90;;;;;;5054478;28;20225;-52
2022/05/09 05:43:14;;;;;;;6.85;2.80;;;17.80;99.90;;;;;;5060901;28;20258;-50
2022/05/09 05:45:46;;;;;;;5.40;3.00;;;17.50;99.90;;;;;;5059635;28;20247;-53
2022/05/09 05:48:14;;;;;;;5.60;3.15;;;17.20;99.90;;;;;;5070057;28;20308;-52
2022/05/09 05:50:43;;;;;;;4.55;3.20;;;16.90;99.90;;;;;;5061305;28;20205;-53
2022/05/09 05:53:11;;;;;;;5.90;2.95;;;16.90;99.90;;;;;;5049694;28;20213;-51
2022/05/09 05:55:40;;;;;;;3.70;2.88;;;16.80;99.90;;;;;;5049886;28;20209;-52
2022/05/09 05:58:08;;;;;;;5.38;2.85;;;16.70;99.90;;;;;;5066860;28;20567;-50
2022/05/09 06:00:37;;;;;;;4.93;3.10;;;16.70;99.90;;;;;;5069838;28;20247;-53
2022/05/09 06:03:07;;;;;;;6.15;3.13;;;16.80;99.90;;;;;;5070016;28;20262;-53
2022/05/09 06:05:35;;;;;;;8.10;3.13;;;17.40;99.90;;;;;;5070102;28;20211;-52
2022/05/09 06:08:04;;;;;;;4.10;2.80;;;17.80;99.90;;;;;;5074447;28;20228;-53
2022/05/09 06:10:32;;;;;;;4.20;2.90;;;18.20;99.90;;;;;;5073933;28;20205;-52
2022/05/09 06:13:04;;;;;;;6.10;3.05;;;18.50;99.90;;;;;;5086501;28;20265;-52
2022/05/09 06:15:33;;;;;;;5.60;2.72;;;18.60;99.90;;;;;;5094760;28;20660;-52
2022/05/09 06:18:03;;;;;;;4.63;2.90;;;18.80;99.90;;;;;;5094348;28;20223;-53
2022/05/09 06:20:34;;;;;;;9.02;3.25;;;19.20;99.90;;;;;;5086146;28;20244;-53
2022/05/09 06:23:03;;;;;;;6.55;3.35;;;19.60;99.90;;;;;;5073435;28;20775;-50
2022/05/09 06:25:34;;;;;;;4.90;3.15;;;20.00;99.90;;;;;;5073858;28;20621;-53
2022/05/09 06:28:06;;;;;;;5.82;3.25;;;20.10;99.90;;;;;;5074079;28;20228;-53
2022/05/09 06:30:34;;;;;;;6.75;3.20;;;20.30;99.90;;;;;;5074327;28;20189;-53
2022/05/09 06:33:03;;;;;;;5.65;3.53;;;20.40;99.90;;;;;;5073137;28;20208;-52
2022/05/09 06:35:31;;;;;;;6.82;3.03;;;20.30;99.90;;;;;;5073556;28;20677;-51
2022/05/09 06:38:01;;;;;;;6.03;2.63;;;20.60;99.90;;;;;;5073515;28;20601;-53
2022/05/09 06:40:30;;;;;;;4.57;2.90;;;20.80;99.90;;;;;;5073266;28;20232;-52
2022/05/09 06:42:59;;;;;;;5.65;3.05;;;21.30;99.90;;;;;;5072361;28;20278;-50
2022/05/09 06:45:29;;;;;;;4.68;3.10;;;21.40;99.90;;;;;;5073074;28;20259;-53
2022/05/09 06:47:58;;;;;;;4.43;2.97;;;21.40;99.90;;;;;;5073281;28;20279;-53
2022/05/09 06:50:28;;;;;;;9.20;3.10;;;21.40;99.90;;;;;;5073178;28;20244;-53
2022/05/09 06:52:56;;;;;;;6.18;2.75;;;21.50;99.90;;;;;;5071125;28;20569;-53
2022/05/09 06:55:44;;;;;;;3.95;2.50;;;21.80;99.90;;;;;;5073428;28;20295;-50
2022/05/09 06:58:17;;;;;;;5.88;3.10;;;22.00;99.30;;;;;;5072782;28;20224;-51
2022/05/09 07:00:47;;;;;;;4.45;2.90;;;22.00;99.40;;;;;;5074208;28;20289;-51
2022/05/09 07:03:15;;;;;;;4.75;2.72;;;22.00;97.90;;;;;;5074091;28;20209;-50
2022/05/09 07:05:45;;;;;;;5.40;2.90;;;22.20;97.60;;;;;;5071926;28;20220;-51
2022/05/09 07:08:14;;;;;;;4.72;2.75;;;22.40;98.30;;;;;;5072448;28;20282;-51
2022/05/09 07:10:43;;;;;;;4.70;2.65;;;22.60;97.80;;;;;;5070126;28;20658;-51
2022/05/09 07:13:24;;;;;;;6.97;2.90;;;22.70;97.20;;;;;;5072643;28;20189;-53
2022/05/09 07:15:57;;;;;;;4.88;2.72;;;22.70;97.40;;;;;;5072704;28;20247;-53
2022/05/09 07:18:27;;;;;;;5.70;2.80;;;22.80;96.80;;;;;;5072813;28;20755;-54
2022/05/09 07:20:56;;;;;;;4.32;2.33;;;23.00;96.70;;;;;;5067486;28;20307;-53
2022/05/09 07:23:25;;;;;;;5.00;2.30;;;23.10;96.20;;;;;;5057055;28;20708;-54
2022/05/09 07:25:55;;;;;;;6.15;2.70;;;23.40;96.60;;;;;;5073289;28;20193;-53
2022/05/09 07:28:26;;;;;;;4.93;2.65;;;23.40;94.70;;;;;;5071805;28;20229;-53
2022/05/09 07:30:57;;;;;;;5.15;2.63;;;23.30;94.90;;;;;;5072739;28;20209;-53
2022/05/09 07:33:25;;;;;;;7.57;2.95;;;23.40;94.40;;;;;;5072371;28;20270;-53
2022/05/09 07:35:53;;;;;;;4.55;2.38;;;23.40;94.00;;;;;;5072674;28;20218;-53
2022/05/09 07:38:21;;;;;;;6.38;2.72;;;23.50;94.50;;;;;;5072604;28;20255;-52
2022/05/09 07:40:50;;;;;;;4.95;2.60;;;23.50;93.80;;;;;;5072062;28;20221;-53
2022/05/09 07:43:20;;;;;;;5.57;2.60;;;23.70;94.90;;;;;;5072013;28;20211;-53
2022/05/09 07:45:48;;;;;;;5.07;2.70;;;23.70;94.20;;;;;;5072701;28;20189;-53
2022/05/09 07:48:19;;;;;;;5.15;2.70;;;23.80;94.20;;;;;;5072131;28;20231;-53
2022/05/09 07:50:47;;;;;;;4.65;2.60;;;23.70;93.40;;;;;;5072601;28;20204;-53
2022/05/09 07:53:18;;;;;;;4.78;2.33;;;23.90;93.20;;;;;;5071609;28;20670;-52
2022/05/09 07:55:47;;;;;;;5.13;2.60;;;23.90;93.30;;;;;;5072398;28;20213;-53
2022/05/09 07:58:16;;;;;;;6.38;2.45;;;23.80;93.50;;;;;;5071752;28;20220;-53
2022/05/09 08:00:45;;;;;;;6.07;2.72;;;23.90;93.20;;;;;;5072376;28;20812;-53
2022/05/09 08:03:16;;;;;;;7.53;2.80;;;23.80;93.80;;;;;;5072039;28;20754;-53
2022/05/09 08:05:45;;;;;;;6.13;3.00;;;23.20;93.40;;;;;;5070721;28;20472;-53
2022/05/09 08:08:14;;;;;;;5.55;2.70;;;23.40;93.00;;;;;;5071387;28;20733;-51
2022/05/09 08:10:43;;;;;;;8.82;2.90;;;22.80;93.70;;;;;;5060369;28;20251;-52
2022/05/09 08:13:12;;;;;;;5.40;2.85;;;22.50;95.20;;;;;;5051188;28;20670;-53
2022/05/09 08:15:44;;;;;;;6.60;2.35;;;22.50;94.40;;;;;;5051183;28;20209;-53
2022/05/09 08:18:13;;;;;;;6.75;3.08;;;22.50;94.60;;;;;;5052283;28;20217;-53
2022/05/09 08:20:45;;;;;;;5.60;2.95;;;22.40;94.70;;;;;;5062194;28;20225;-52
2022/05/09 08:23:18;;;;;;;6.43;3.17;;;22.40;93.70;;;;;;5051101;28;20205;-52
2022/05/09 08:25:48;;;;;;;4.90;2.80;;;22.50;94.60;;;;;;5051740;28;20205;-52
2022/05/09 08:28:18;;;;;;;4.90;2.70;;;22.40;94.20;;;;;;5051417;28;20275;-53
2022/05/09 08:30:47;;;;;;;6.97;3.22;;;22.30;95.00;;;;;;5051229;28;20201;-52
2022/05/09 08:33:17;;;;;;;8.73;3.50;;;22.10;94.90;;;;;;5051441;28;20251;-52
2022/05/09 08:35:47;;;;;;;6.15;3.05;;;22.10;95.40;;;;;;5051541;28;20186;-52
2022/05/09 08:38:17;;;;;;;5.90;2.70;;;22.10;94.80;;;;;;5051521;28;20230;-52
2022/05/09 08:41:05;;;;;;;5.43;2.90;;;22.20;96.20;;;;;;5051111;28;20300;-52
2022/05/09 08:43:56;;;;;;;5.43;2.90;;;22.20;95.30;;;;;;5060716;28;20212;-52
2022/05/09 08:46:33;;;;;;;7.63;3.45;;;22.20;94.90;;;;;;5071422;28;20270;-53
2022/05/09 08:49:25;;;;;;;9.88;3.20;;;22.40;96.40;;;;;;5070588;28;20225;-52
2022/05/09 08:52:00;;;;;;;5.65;3.28;;;22.40;97.90;;;;;;5057181;28;20205;-52
2022/05/09 08:54:30;;;;;;;6.60;3.20;;;22.40;98.00;;;;;;5066014;28;20216;-52
2022/05/09 08:57:03;;;;;;;6.13;2.92;;;22.40;98.10;;;;;;5071136;28;20589;-53
2022/05/09 08:59:36;;;;;;;4.40;2.90;;;22.40;97.30;;;;;;5071549;28;20278;-51
2022/05/09 09:02:13;;;;;;;4.25;2.85;;;22.40;96.90;;;;;;5070202;28;20259;-52
2022/05/09 09:04:41;;;;;;;9.10;3.03;;;22.30;98.30;;;;;;5071281;28;20232;-57
2022/05/09 09:07:32;;;;;;;5.88;3.05;;;22.20;97.30;;;;;;5070739;28;20237;-52
2022/05/09 09:10:12;;;;;;;7.25;3.35;;;22.00;95.80;;;;;;5070810;28;20237;-52
2022/05/09 09:12:49;;;;;;;6.95;3.30;;;21.90;95.80;;;;;;5070760;28;20185;-52
2022/05/09 09:15:29;;;;;;;8.13;3.58;;;22.00;96.70;;;;;;5071317;28;20231;-52
2022/05/09 09:18:20;;;;;;;6.20;3.40;;;22.10;96.00;;;;;;5070990;28;20611;-52
2022/05/09 09:20:57;;;;;;;6.10;3.17;;;22.30;97.80;;;;;;5069767;28;20271;-52
2022/05/09 09:23:40;;;;;;;7.18;3.30;;;22.30;96.90;;;;;;5070677;28;20193;-52
2022/05/09 09:26:16;;;;;;;4.28;3.00;;;22.20;96.90;;;;;;5070165;28;20200;-52
2022/05/09 09:28:49;;;;;;;6.45;3.13;;;22.20;97.40;;;;;;5066540;28;20256;-53
2022/05/09 09:31:25;;;;;;;7.35;3.30;;;22.20;97.00;;;;;;5067817;28;20201;-52
2022/05/09 09:33:58;;;;;;;6.90;3.60;;;22.20;97.20;;;;;;5062364;28;20208;-53
2022/05/09 09:36:35;;;;;;;5.35;3.30;;;22.10;97.30;;;;;;5070369;28;20258;-53
2022/05/09 09:39:10;;;;;;;7.38;3.60;;;22.10;96.00;;;;;;5070259;28;20307;-53
2022/05/09 09:41:40;;;;;;;6.57;3.85;;;22.20;98.20;;;;;;5063854;28;20208;-53
2022/05/09 09:44:13;;;;;;;5.95;3.80;;;22.20;98.80;;;;;;5069948;28;20677;-53
2022/05/09 09:47:09;;;;;;;8.07;3.90;;;22.40;98.70;;;;;;5067663;28;20197;-53
2022/05/09 09:49:39;;;;;;;7.72;4.22;;;22.40;98.80;;;;;;5070688;28;20200;-53
2022/05/09 09:52:22;;;;;;;5.72;4.10;;;22.40;99.20;;;;;;5069807;28;20200;-53
2022/05/09 09:54:57;;;;;;;7.30;4.00;;;22.40;99.50;;;;;;5070702;28;20630;-53
2022/05/09 09:57:30;;;;;;;7.30;4.07;;;22.40;99.90;;;;;;5070076;28;20232;-53
2022/05/09 10:00:03;;;;;;;5.57;3.97;;;22.50;99.90;;;;;;5070395;28;20240;-52
2022/05/09 10:02:32;;;;;;;4.63;4.13;;;22.60;99.90;;;;;;5069890;28;20244;-53
2022/05/09 10:05:11;;;;;;;5.70;4.53;;;22.60;99.80;;;;;;5070581;28;20239;-52
2022/05/09 10:07:43;;;;;;;8.27;4.35;;;22.50;98.60;;;;;;5070038;28;20312;-52
2022/05/09 10:10:15;;;;;;;6.40;4.43;;;22.50;99.90;;;;;;5069443;28;20231;-53
2022/05/09 10:12:48;;;;;;;7.15;4.68;;;22.50;99.60;;;;;;5069829;28;20262;-53
2022/05/09 10:15:28;;;;;;;7.22;4.15;;;22.60;99.90;;;;;;5070040;28;20212;-52
2022/05/09 10:17:58;;;;;;;7.95;4.15;;;22.80;99.90;;;;;;5070262;28;20705;-53
2022/05/09 10:20:33;;;;;;;6.10;4.40;;;22.80;99.90;;;;;;5070230;28;20220;-52
2022/05/09 10:26:05;;;;;;;6.82;4.32;;;22.90;99.90;;;;;;5070136;28;20205;-53
2022/05/09 10:28:37;;;;;;;6.82;4.20;;;23.00;99.90;;;;;;5070034;28;20263;-53
2022/05/09 10:31:21;;;;;;;7.00;4.28;;;22.90;99.90;;;;;;5069653;28;20212;-53
2022/05/09 10:33:56;;;;;;;5.22;4.30;;;22.90;99.50;;;;;;5069541;28;20241;-52
2022/05/09 10:36:28;;;;;;;5.47;4.32;;;22.90;98.40;;;;;;5069980;28;20204;-52
2022/05/09 10:39:01;;;;;;;7.07;4.20;;;23.00;99.40;;;;;;5068408;28;20772;-53
2022/05/09 10:41:35;;;;;;;6.15;4.43;;;23.00;99.90;;;;;;5069277;28;20240;-52
2022/05/09 10:44:11;;;;;;;7.50;4.07;;;23.10;99.50;;;;;;5068926;28;20232;-53
2022/05/09 10:46:47;;;;;;;6.43;4.30;;;23.10;99.80;;;;;;5069718;28;20240;-53
2022/05/09 10:49:29;;;;;;;9.35;5.00;;;23.10;99.90;;;;;;5069707;28;20185;-53
2022/05/09 10:52:08;;;;;;;7.13;4.10;;;23.20;97.70;;;;;;5069815;28;20661;-53
2022/05/09 10:54:45;;;;;;;6.80;4.35;;;23.20;99.20;;;;;;5073761;28;20212;-53
2022/05/09 10:57:19;;;;;;;5.88;4.20;;;23.20;99.90;;;;;;5073587;28;20259;-52
2022/05/09 11:00:18;;;;;;;6.57;4.28;;;23.30;99.90;;;;;;5072601;28;20301;-52
2022/05/09 11:02:57;;;;;;;5.22;3.95;;;23.30;99.40;;;;;;5072947;28;20311;-52
2022/05/09 11:05:29;;;;;;;7.45;4.30;;;23.40;99.70;;;;;;5073269;28;20282;-52
2022/05/09 11:08:06;;;;;;;6.13;4.57;;;23.40;99.20;;;;;;5072987;28;20286;-52
2022/05/09 11:10:41;;;;;;;4.22;3.83;;;23.20;96.50;;;;;;5073048;28;20201;-52
2022/05/09 11:13:21;;;;;;;5.82;3.70;;;23.30;98.10;;;;;;5072874;28;20238;-52
2022/05/09 11:16:03;;;;;;;5.68;3.88;;;23.20;99.60;;;;;;5073288;28;20681;-51
2022/05/09 11:18:50;;;;;;;6.72;3.42;;;23.40;98.70;;;;;;5073030;28;20225;-52
2022/05/09 11:21:31;;;;;;;7.50;4.28;;;23.60;99.70;;;;;;5071613;28;20208;-52
2022/05/09 11:24:08;;;;;;;5.35;3.90;;;23.40;97.40;;;;;;5071831;28;20212;-52
2022/05/09 11:26:47;;;;;;;5.88;3.70;;;23.30;96.90;;;;;;5073028;28;20262;-52
2022/05/09 11:29:35;;;;;;;5.57;3.80;;;23.30;98.50;;;;;;5071817;28;20290;-52
2022/05/09 11:32:18;;;;;;;6.28;3.80;;;23.60;98.40;;;;;;5070208;28;20215;-52
2022/05/09 11:35:08;;;;;;;4.78;3.65;;;23.50;96.30;;;;;;5070447;28;20209;-52
2022/05/09 11:37:41;;;;;;;6.28;4.00;;;23.60;98.20;;;;;;5071021;28;20287;-52
2022/05/09 11:40:17;;;;;;;6.00;3.90;;;23.50;98.50;;;;;;5069715;28;20189;-52
2022/05/09 11:45:50;;;;;;;5.13;3.47;;;23.50;96.20;;;;;;5062587;28;20251;-52
2022/05/09 11:48:30;;;;;;;6.38;3.58;;;23.60;97.60;;;;;;5052541;28;20222;-52
2022/05/09 11:51:13;;;;;;;6.28;3.42;;;23.60;96.80;;;;;;5052460;28;20198;-52
2022/05/09 11:53:45;;;;;;;6.57;3.65;;;23.50;94.20;;;;;;5068000;28;20254;-52
2022/05/09 11:56:14;;;;;;;7.97;3.90;;;23.60;96.50;;;;;;5069289;28;20266;-53
2022/05/09 11:58:44;;;;;;;5.32;3.58;;;23.70;95.90;;;;;;5056754;28;20230;-52
2022/05/09 12:01:13;;;;;;;5.93;3.97;;;23.70;95.40;;;;;;5052026;28;20280;-52
2022/05/09 12:04:03;;;;;;;12.13;3.60;;;23.70;96.50;;;;;;5050668;28;20296;-53
2022/05/09 12:06:39;;;;;;;5.15;3.67;;;23.80;95.20;;;;;;5051894;28;20682;-53
2022/05/09 12:09:11;;;;;;;5.47;3.90;;;23.80;94.70;;;;;;5058250;28;20224;-53
2022/05/09 12:11:51;;;;;;;6.18;3.70;;;23.80;96.60;;;;;;5071505;28;20677;-52
2022/05/09 12:14:39;;;;;;;5.25;3.50;;;23.80;95.90;;;;;;5071188;28;20236;-54
2022/05/09 12:17:19;;;;;;;4.00;3.60;;;23.80;95.20;;;;;;5071830;28;20723;-53
2022/05/09 12:19:49;;;;;;;6.82;3.85;;;23.70;94.30;;;;;;5071055;28;20836;-52
2022/05/09 12:22:44;;;;;;;4.20;3.80;;;23.70;96.40;;;;;;5071270;28;20274;-53
2022/05/09 12:25:29;;;;;;;6.47;4.13;;;23.60;97.10;;;;;;5071680;28;20201;-53
2022/05/09 12:28:04;;;;;;;7.00;3.60;;;23.70;97.10;;;;;;5069217;28;20229;-53
2022/05/09 12:30:43;;;;;;;5.78;3.60;;;23.70;97.30;;;;;;5070345;28;20254;-53
2022/05/09 12:33:18;;;;;;;4.50;3.38;;;23.70;95.90;;;;;;5062876;28;20203;-53
2022/05/09 12:35:50;;;;;;;3.80;3.40;;;23.70;96.00;;;;;;5070771;28;20205;-52
2022/05/09 12:38:23;;;;;;;5.00;3.42;;;23.70;93.40;;;;;;5066332;28;20811;-53
2022/05/09 12:41:02;;;;;;;5.07;3.78;;;23.80;95.00;;;;;;5065871;28;20255;-52
2022/05/09 12:43:32;;;;;;;4.88;4.05;;;23.80;95.50;;;;;;5075622;28;20255;-53
2022/05/09 12:46:01;;;;;;;5.20;3.58;;;23.80;95.10;;;;;;5068940;28;20205;-53
2022/05/09 12:48:30;;;;;;;4.40;3.70;;;23.80;94.10;;;;;;5069102;28;20256;-53
2022/05/09 12:51:05;;;;;;;7.07;4.38;;;23.80;93.80;;;;;;5086711;28;20232;-52
2022/05/09 12:53:36;;;;;;;6.32;3.90;;;23.80;93.70;;;;;;5051272;28;20253;-52
2022/05/09 12:56:14;;;;;;;7.28;3.80;;;23.70;93.50;;;;;;5068889;28;20213;-53
2022/05/09 12:58:45;;;;;;;6.30;3.47;;;23.60;92.80;;;;;;5076217;28;20255;-53
2022/05/09 13:01:15;;;;;;;4.75;4.00;;;23.60;93.10;;;;;;5082183;28;20228;-53
2022/05/09 13:04:05;;;;;;;4.90;3.95;;;23.70;92.80;;;;;;5052019;28;20312;-53
2022/05/09 13:06:38;;;;;;;5.85;4.03;;;23.60;94.10;;;;;;5066347;28;20346;-52
2022/05/09 13:09:14;;;;;;;4.18;3.78;;;23.50;94.30;;;;;;5070880;28;20227;-53
2022/05/09 13:11:46;;;;;;;4.78;4.00;;;23.60;93.80;;;;;;5070820;28;20189;-54
2022/05/09 13:14:22;;;;;;;6.53;3.65;;;23.60;95.30;;;;;;5070895;28;20662;-52
2022/05/09 13:16:58;;;;;;;6.10;3.78;;;23.60;95.60;;;;;;5071629;28;20212;-53
2022/05/09 13:19:26;;;;;;;4.82;4.03;;;23.70;94.40;;;;;;5071300;28;20655;-53
2022/05/09 13:21:56;;;;;;;4.38;3.67;;;23.90;95.70;;;;;;5070471;28;20205;-52
2022/05/09 13:24:27;;;;;;;4.15;3.50;;;23.80;93.10;;;;;;5070966;28;20252;-52
2022/05/09 13:26:58;;;;;;;5.80;3.78;;;23.80;94.60;;;;;;5069283;28;20258;-52
2022/05/09 13:29:29;;;;;;;4.03;3.38;;;23.80;93.60;;;;;;5069081;28;20221;-52